sensor_id;sensor_type;location;lat;lon;timestamp;P1;durP1;ratioP1;P2;durP2;ratioP2
44147;SDS011;29810;55.848;37.368;2022-11-15T00:01:27;2.62;;;1.00;;
44147;SDS011;29810;55.848;37.368;2022-11-15T00:04:47;4.90;;;0.80;;
44147;SDS011;29810;55.848;37.368;2022-11-15T00:08:07;3.55;;;0.98;;
44147;SDS011;29810;55.848;37.368;2022-11-15T00:11:26;3.25;;;1.10;;
44147;SDS011;29810;55.848;37.368;2022-11-15T00:14:46;3.17;;;1.10;;
44147;SDS011;29810;55.848;37.368;2022-11-15T00:18:10;3.00;;;0.90;;
44147;SDS011;29810;55.848;37.368;2022-11-15T00:21:32;5.22;;;1.20;;
44147;SDS011;29810;55.848;37.368;2022-11-15T00:24:52;3.15;;;1.20;;
44147;SDS011;29810;55.848;37.368;2022-11-15T00:28:13;7.32;;;1.25;;
44147;SDS011;29810;55.848;37.368;2022-11-15T00:31:33;4.85;;;1.30;;
44147;SDS011;29810;55.848;37.368;2022-11-15T00:34:53;4.80;;;1.02;;
44147;SDS011;29810;55.848;37.368;2022-11-15T00:38:12;2.15;;;0.90;;
44147;SDS011;29810;55.848;37.368;2022-11-15T00:41:32;4.12;;;1.30;;
44147;SDS011;29810;55.848;37.368;2022-11-15T00:44:52;8.95;;;1.10;;
44147;SDS011;29810;55.848;37.368;2022-11-15T00:48:12;2.80;;;0.90;;
44147;SDS011;29810;55.848;37.368;2022-11-15T00:51:32;5.28;;;1.27;;
44147;SDS011;29810;55.848;37.368;2022-11-15T00:54:51;3.42;;;0.93;;
44147;SDS011;29810;55.848;37.368;2022-11-15T00:58:11;3.97;;;1.00;;
44147;SDS011;29810;55.848;37.368;2022-11-15T01:01:31;5.20;;;1.37;;
44147;SDS011;29810;55.848;37.368;2022-11-15T01:04:51;5.07;;;1.10;;
44147;SDS011;29810;55.848;37.368;2022-11-15T01:08:14;4.22;;;1.10;;
44147;SDS011;29810;55.848;37.368;2022-11-15T01:11:35;4.93;;;1.58;;
44147;SDS011;29810;55.848;37.368;2022-11-15T01:14:55;3.40;;;1.20;;
44147;SDS011;29810;55.848;37.368;2022-11-15T01:18:14;4.30;;;1.02;;
44147;SDS011;29810;55.848;37.368;2022-11-15T01:21:35;4.03;;;0.95;;
44147;SDS011;29810;55.848;37.368;2022-11-15T01:24:54;2.50;;;0.98;;
44147;SDS011;29810;55.848;37.368;2022-11-15T01:28:14;3.62;;;0.90;;
44147;SDS011;29810;55.848;37.368;2022-11-15T01:31:34;2.37;;;0.80;;
44147;SDS011;29810;55.848;37.368;2022-11-15T01:34:54;6.40;;;1.17;;
44147;SDS011;29810;55.848;37.368;2022-11-15T01:38:14;4.57;;;1.23;;
44147;SDS011;29810;55.848;37.368;2022-11-15T01:41:34;3.35;;;0.85;;
44147;SDS011;29810;55.848;37.368;2022-11-15T01:44:54;3.45;;;1.15;;
44147;SDS011;29810;55.848;37.368;2022-11-15T01:48:14;3.95;;;1.15;;
44147;SDS011;29810;55.848;37.368;2022-11-15T01:51:34;3.37;;;0.90;;
44147;SDS011;29810;55.848;37.368;2022-11-15T01:55:02;4.00;;;1.00;;
44147;SDS011;29810;55.848;37.368;2022-11-15T01:58:25;2.70;;;0.85;;
44147;SDS011;29810;55.848;37.368;2022-11-15T02:01:45;4.93;;;1.08;;
44147;SDS011;29810;55.848;37.368;2022-11-15T02:05:05;3.72;;;0.80;;
44147;SDS011;29810;55.848;37.368;2022-11-15T02:08:25;5.87;;;1.20;;
44147;SDS011;29810;55.848;37.368;2022-11-15T02:11:46;3.50;;;1.00;;
44147;SDS011;29810;55.848;37.368;2022-11-15T02:15:08;3.65;;;1.08;;
44147;SDS011;29810;55.848;37.368;2022-11-15T02:18:34;3.12;;;1.00;;
44147;SDS011;29810;55.848;37.368;2022-11-15T02:25:39;3.15;;;1.10;;
44147;SDS011;29810;55.848;37.368;2022-11-15T02:29:11;5.60;;;1.30;;
44147;SDS011;29810;55.848;37.368;2022-11-15T02:36:40;3.22;;;1.20;;
44147;SDS011;29810;55.848;37.368;2022-11-15T02:40:11;2.37;;;1.00;;
44147;SDS011;29810;55.848;37.368;2022-11-15T02:47:15;3.05;;;1.10;;
44147;SDS011;29810;55.848;37.368;2022-11-15T02:50:36;4.05;;;1.37;;
44147;SDS011;29810;55.848;37.368;2022-11-15T02:54:06;3.90;;;1.30;;
44147;SDS011;29810;55.848;37.368;2022-11-15T02:57:39;4.03;;;1.15;;
44147;SDS011;29810;55.848;37.368;2022-11-15T03:04:39;4.18;;;1.40;;
44147;SDS011;29810;55.848;37.368;2022-11-15T03:11:27;4.37;;;1.45;;
44147;SDS011;29810;55.848;37.368;2022-11-15T03:14:53;3.65;;;1.40;;
44147;SDS011;29810;55.848;37.368;2022-11-15T03:18:22;5.18;;;1.30;;
44147;SDS011;29810;55.848;37.368;2022-11-15T03:21:49;3.95;;;1.35;;
44147;SDS011;29810;55.848;37.368;2022-11-15T03:25:13;4.03;;;1.30;;
44147;SDS011;29810;55.848;37.368;2022-11-15T03:28:53;5.43;;;1.40;;
44147;SDS011;29810;55.848;37.368;2022-11-15T03:32:17;5.03;;;1.50;;
44147;SDS011;29810;55.848;37.368;2022-11-15T03:35:41;3.15;;;1.37;;
44147;SDS011;29810;55.848;37.368;2022-11-15T03:39:05;4.62;;;1.58;;
44147;SDS011;29810;55.848;37.368;2022-11-15T03:42:28;3.33;;;1.50;;
44147;SDS011;29810;55.848;37.368;2022-11-15T03:46:05;7.87;;;1.50;;
44147;SDS011;29810;55.848;37.368;2022-11-15T03:49:45;4.93;;;1.25;;
44147;SDS011;29810;55.848;37.368;2022-11-15T03:53:10;4.25;;;1.50;;
44147;SDS011;29810;55.848;37.368;2022-11-15T03:56:31;6.70;;;1.37;;
44147;SDS011;29810;55.848;37.368;2022-11-15T03:59:51;6.62;;;1.37;;
44147;SDS011;29810;55.848;37.368;2022-11-15T04:03:11;5.22;;;1.40;;
44147;SDS011;29810;55.848;37.368;2022-11-15T04:06:30;3.45;;;1.27;;
44147;SDS011;29810;55.848;37.368;2022-11-15T04:09:50;4.80;;;1.35;;
44147;SDS011;29810;55.848;37.368;2022-11-15T04:13:23;6.03;;;1.70;;
44147;SDS011;29810;55.848;37.368;2022-11-15T04:16:43;5.50;;;1.55;;
44147;SDS011;29810;55.848;37.368;2022-11-15T04:20:07;4.07;;;1.20;;
44147;SDS011;29810;55.848;37.368;2022-11-15T04:23:50;6.65;;;1.20;;
44147;SDS011;29810;55.848;37.368;2022-11-15T04:27:25;4.18;;;1.20;;
44147;SDS011;29810;55.848;37.368;2022-11-15T04:30:45;8.38;;;1.80;;
44147;SDS011;29810;55.848;37.368;2022-11-15T04:34:05;5.85;;;1.50;;
44147;SDS011;29810;55.848;37.368;2022-11-15T04:37:25;6.12;;;1.10;;
44147;SDS011;29810;55.848;37.368;2022-11-15T04:40:47;3.35;;;1.30;;
44147;SDS011;29810;55.848;37.368;2022-11-15T04:44:07;5.12;;;1.27;;
44147;SDS011;29810;55.848;37.368;2022-11-15T04:47:27;4.37;;;1.58;;
44147;SDS011;29810;55.848;37.368;2022-11-15T04:50:48;5.07;;;1.42;;
44147;SDS011;29810;55.848;37.368;2022-11-15T04:54:08;4.43;;;1.60;;
44147;SDS011;29810;55.848;37.368;2022-11-15T04:57:29;4.68;;;1.70;;
44147;SDS011;29810;55.848;37.368;2022-11-15T05:00:48;5.75;;;1.65;;
44147;SDS011;29810;55.848;37.368;2022-11-15T05:04:11;5.57;;;1.58;;
44147;SDS011;29810;55.848;37.368;2022-11-15T05:07:40;5.97;;;1.60;;
44147;SDS011;29810;55.848;37.368;2022-11-15T05:10:59;5.07;;;1.30;;
44147;SDS011;29810;55.848;37.368;2022-11-15T05:14:19;2.95;;;1.42;;
44147;SDS011;29810;55.848;37.368;2022-11-15T05:17:39;3.33;;;1.23;;
44147;SDS011;29810;55.848;37.368;2022-11-15T05:21:17;5.70;;;1.60;;
44147;SDS011;29810;55.848;37.368;2022-11-15T05:24:38;7.50;;;1.70;;
44147;SDS011;29810;55.848;37.368;2022-11-15T05:27:58;6.78;;;2.15;;
44147;SDS011;29810;55.848;37.368;2022-11-15T05:31:18;4.62;;;1.92;;
44147;SDS011;29810;55.848;37.368;2022-11-15T05:34:38;3.58;;;1.60;;
44147;SDS011;29810;55.848;37.368;2022-11-15T05:37:58;8.40;;;1.50;;
44147;SDS011;29810;55.848;37.368;2022-11-15T05:41:19;3.58;;;1.60;;
44147;SDS011;29810;55.848;37.368;2022-11-15T05:44:44;3.70;;;1.20;;
44147;SDS011;29810;55.848;37.368;2022-11-15T05:48:08;5.25;;;1.40;;
44147;SDS011;29810;55.848;37.368;2022-11-15T05:51:29;4.55;;;1.73;;
44147;SDS011;29810;55.848;37.368;2022-11-15T05:54:49;4.97;;;1.70;;
44147;SDS011;29810;55.848;37.368;2022-11-15T05:58:11;7.18;;;1.42;;
44147;SDS011;29810;55.848;37.368;2022-11-15T06:01:31;6.70;;;1.55;;
44147;SDS011;29810;55.848;37.368;2022-11-15T06:04:51;6.62;;;1.98;;
44147;SDS011;29810;55.848;37.368;2022-11-15T06:08:10;4.50;;;1.55;;
44147;SDS011;29810;55.848;37.368;2022-11-15T06:11:30;5.62;;;1.48;;
44147;SDS011;29810;55.848;37.368;2022-11-15T06:14:50;4.97;;;1.60;;
44147;SDS011;29810;55.848;37.368;2022-11-15T06:18:10;3.95;;;1.83;;
44147;SDS011;29810;55.848;37.368;2022-11-15T06:21:30;6.57;;;1.65;;
44147;SDS011;29810;55.848;37.368;2022-11-15T06:24:49;4.32;;;1.48;;
44147;SDS011;29810;55.848;37.368;2022-11-15T06:28:09;7.12;;;1.70;;
44147;SDS011;29810;55.848;37.368;2022-11-15T06:31:29;8.00;;;2.20;;
44147;SDS011;29810;55.848;37.368;2022-11-15T06:34:49;15.10;;;2.30;;
44147;SDS011;29810;55.848;37.368;2022-11-15T06:38:09;4.15;;;2.00;;
44147;SDS011;29810;55.848;37.368;2022-11-15T06:41:30;5.90;;;1.52;;
44147;SDS011;29810;55.848;37.368;2022-11-15T06:44:52;4.87;;;1.58;;
44147;SDS011;29810;55.848;37.368;2022-11-15T06:48:13;4.95;;;2.12;;
44147;SDS011;29810;55.848;37.368;2022-11-15T06:51:33;5.12;;;1.60;;
44147;SDS011;29810;55.848;37.368;2022-11-15T06:54:55;8.27;;;1.62;;
44147;SDS011;29810;55.848;37.368;2022-11-15T06:58:15;2.92;;;1.50;;
44147;SDS011;29810;55.848;37.368;2022-11-15T07:01:35;4.60;;;1.70;;
44147;SDS011;29810;55.848;37.368;2022-11-15T07:04:55;5.20;;;1.80;;
44147;SDS011;29810;55.848;37.368;2022-11-15T07:08:15;4.60;;;1.50;;
44147;SDS011;29810;55.848;37.368;2022-11-15T07:11:35;4.53;;;1.80;;
44147;SDS011;29810;55.848;37.368;2022-11-15T07:14:55;6.45;;;1.90;;
44147;SDS011;29810;55.848;37.368;2022-11-15T07:18:15;9.10;;;2.00;;
44147;SDS011;29810;55.848;37.368;2022-11-15T07:21:35;6.97;;;1.98;;
44147;SDS011;29810;55.848;37.368;2022-11-15T07:24:56;6.18;;;1.95;;
44147;SDS011;29810;55.848;37.368;2022-11-15T07:28:16;7.00;;;2.20;;
44147;SDS011;29810;55.848;37.368;2022-11-15T07:31:36;10.35;;;2.08;;
44147;SDS011;29810;55.848;37.368;2022-11-15T07:34:56;5.53;;;2.40;;
44147;SDS011;29810;55.848;37.368;2022-11-15T07:38:16;5.40;;;2.45;;
44147;SDS011;29810;55.848;37.368;2022-11-15T07:41:40;6.80;;;2.62;;
44147;SDS011;29810;55.848;37.368;2022-11-15T07:45:00;5.53;;;2.20;;
44147;SDS011;29810;55.848;37.368;2022-11-15T07:48:20;5.80;;;2.40;;
44147;SDS011;29810;55.848;37.368;2022-11-15T07:51:40;10.40;;;2.30;;
44147;SDS011;29810;55.848;37.368;2022-11-15T07:55:00;6.93;;;2.17;;
44147;SDS011;29810;55.848;37.368;2022-11-15T07:58:19;7.32;;;2.50;;
44147;SDS011;29810;55.848;37.368;2022-11-15T08:01:39;10.07;;;2.50;;
44147;SDS011;29810;55.848;37.368;2022-11-15T08:04:59;8.15;;;2.33;;
44147;SDS011;29810;55.848;37.368;2022-11-15T08:08:19;10.07;;;2.75;;
44147;SDS011;29810;55.848;37.368;2022-11-15T08:11:39;11.68;;;2.67;;
44147;SDS011;29810;55.848;37.368;2022-11-15T08:14:58;6.78;;;2.72;;
44147;SDS011;29810;55.848;37.368;2022-11-15T08:18:18;6.85;;;2.70;;
44147;SDS011;29810;55.848;37.368;2022-11-15T08:21:38;8.95;;;2.58;;
44147;SDS011;29810;55.848;37.368;2022-11-15T08:24:58;8.27;;;2.70;;
44147;SDS011;29810;55.848;37.368;2022-11-15T08:28:17;7.37;;;2.72;;
44147;SDS011;29810;55.848;37.368;2022-11-15T08:31:37;9.55;;;2.20;;
44147;SDS011;29810;55.848;37.368;2022-11-15T08:34:57;6.75;;;2.70;;
44147;SDS011;29810;55.848;37.368;2022-11-15T08:38:17;8.48;;;2.85;;
44147;SDS011;29810;55.848;37.368;2022-11-15T08:41:37;10.10;;;2.55;;
44147;SDS011;29810;55.848;37.368;2022-11-15T08:44:57;8.88;;;2.55;;
44147;SDS011;29810;55.848;37.368;2022-11-15T08:48:17;9.57;;;2.45;;
44147;SDS011;29810;55.848;37.368;2022-11-15T08:51:37;9.15;;;2.80;;
44147;SDS011;29810;55.848;37.368;2022-11-15T08:54:56;9.65;;;2.30;;
44147;SDS011;29810;55.848;37.368;2022-11-15T08:58:16;10.82;;;2.40;;
44147;SDS011;29810;55.848;37.368;2022-11-15T09:01:36;8.75;;;2.70;;
44147;SDS011;29810;55.848;37.368;2022-11-15T09:04:56;6.97;;;2.95;;
44147;SDS011;29810;55.848;37.368;2022-11-15T09:08:16;8.15;;;2.58;;
44147;SDS011;29810;55.848;37.368;2022-11-15T09:11:37;8.95;;;2.60;;
44147;SDS011;29810;55.848;37.368;2022-11-15T09:14:57;17.75;;;2.67;;
44147;SDS011;29810;55.848;37.368;2022-11-15T09:18:17;7.80;;;2.30;;
44147;SDS011;29810;55.848;37.368;2022-11-15T09:21:37;9.73;;;2.15;;
44147;SDS011;29810;55.848;37.368;2022-11-15T09:24:57;7.78;;;2.33;;
44147;SDS011;29810;55.848;37.368;2022-11-15T09:28:17;10.65;;;2.53;;
44147;SDS011;29810;55.848;37.368;2022-11-15T09:31:37;6.12;;;2.25;;
44147;SDS011;29810;55.848;37.368;2022-11-15T09:34:57;7.78;;;2.62;;
44147;SDS011;29810;55.848;37.368;2022-11-15T09:38:18;12.00;;;2.97;;
44147;SDS011;29810;55.848;37.368;2022-11-15T09:45:40;8.10;;;2.75;;
44147;SDS011;29810;55.848;37.368;2022-11-15T09:49:00;6.43;;;2.65;;
44147;SDS011;29810;55.848;37.368;2022-11-15T09:52:04;6.30;;;2.90;;
44147;SDS011;29810;55.848;37.368;2022-11-15T09:55:07;8.50;;;2.95;;
44147;SDS011;29810;55.848;37.368;2022-11-15T09:58:31;12.37;;;3.05;;
44147;SDS011;29810;55.848;37.368;2022-11-15T10:04:39;11.05;;;3.20;;
44147;SDS011;29810;55.848;37.368;2022-11-15T10:11:06;15.02;;;3.40;;
44147;SDS011;29810;55.848;37.368;2022-11-15T10:14:14;14.82;;;3.58;;
44147;SDS011;29810;55.848;37.368;2022-11-15T10:21:19;12.60;;;3.83;;
44147;SDS011;29810;55.848;37.368;2022-11-15T10:24:35;7.80;;;3.60;;
44147;SDS011;29810;55.848;37.368;2022-11-15T10:27:40;14.00;;;3.55;;
44147;SDS011;29810;55.848;37.368;2022-11-15T10:30:46;9.80;;;3.40;;
44147;SDS011;29810;55.848;37.368;2022-11-15T10:34:15;10.43;;;3.15;;
44147;SDS011;29810;55.848;37.368;2022-11-15T10:37:29;7.62;;;3.05;;
44147;SDS011;29810;55.848;37.368;2022-11-15T10:40:33;9.35;;;3.53;;
44147;SDS011;29810;55.848;37.368;2022-11-15T10:43:35;8.15;;;3.40;;
44147;SDS011;29810;55.848;37.368;2022-11-15T10:46:37;11.90;;;3.33;;
44147;SDS011;29810;55.848;37.368;2022-11-15T10:49:41;9.45;;;3.72;;
44147;SDS011;29810;55.848;37.368;2022-11-15T10:52:54;9.65;;;3.45;;
44147;SDS011;29810;55.848;37.368;2022-11-15T10:55:58;11.60;;;3.62;;
44147;SDS011;29810;55.848;37.368;2022-11-15T10:59:03;10.02;;;3.47;;
44147;SDS011;29810;55.848;37.368;2022-11-15T11:08:29;10.75;;;3.70;;
44147;SDS011;29810;55.848;37.368;2022-11-15T11:11:51;9.50;;;3.72;;
44147;SDS011;29810;55.848;37.368;2022-11-15T11:14:53;10.20;;;3.50;;
44147;SDS011;29810;55.848;37.368;2022-11-15T11:22:03;10.00;;;3.30;;
44147;SDS011;29810;55.848;37.368;2022-11-15T11:25:08;8.25;;;3.17;;
44147;SDS011;29810;55.848;37.368;2022-11-15T11:34:49;12.15;;;3.37;;
44147;SDS011;29810;55.848;37.368;2022-11-15T11:44:45;11.63;;;4.28;;
44147;SDS011;29810;55.848;37.368;2022-11-15T11:51:33;10.68;;;4.12;;
44147;SDS011;29810;55.848;37.368;2022-11-15T12:04:42;18.00;;;4.60;;
44147;SDS011;29810;55.848;37.368;2022-11-15T12:07:49;11.30;;;4.60;;
44147;SDS011;29810;55.848;37.368;2022-11-15T12:11:14;8.52;;;4.05;;
44147;SDS011;29810;55.848;37.368;2022-11-15T12:17:32;9.80;;;3.62;;
44147;SDS011;29810;55.848;37.368;2022-11-15T12:20:35;8.07;;;3.70;;
44147;SDS011;29810;55.848;37.368;2022-11-15T12:23:44;12.27;;;4.25;;
44147;SDS011;29810;55.848;37.368;2022-11-15T12:26:54;8.15;;;3.60;;
44147;SDS011;29810;55.848;37.368;2022-11-15T12:30:08;11.27;;;4.18;;
44147;SDS011;29810;55.848;37.368;2022-11-15T12:33:28;9.85;;;4.82;;
44147;SDS011;29810;55.848;37.368;2022-11-15T12:36:40;10.90;;;4.07;;
44147;SDS011;29810;55.848;37.368;2022-11-15T12:40:04;10.48;;;3.40;;
44147;SDS011;29810;55.848;37.368;2022-11-15T12:46:22;8.57;;;3.67;;
44147;SDS011;29810;55.848;37.368;2022-11-15T12:52:32;6.78;;;3.85;;
44147;SDS011;29810;55.848;37.368;2022-11-15T12:55:37;9.63;;;4.00;;
44147;SDS011;29810;55.848;37.368;2022-11-15T13:01:57;13.02;;;4.03;;
44147;SDS011;29810;55.848;37.368;2022-11-15T13:08:39;8.93;;;3.65;;
44147;SDS011;29810;55.848;37.368;2022-11-15T13:11:49;8.25;;;3.95;;
44147;SDS011;29810;55.848;37.368;2022-11-15T13:14:56;11.10;;;3.90;;
44147;SDS011;29810;55.848;37.368;2022-11-15T13:18:18;10.80;;;4.18;;
44147;SDS011;29810;55.848;37.368;2022-11-15T13:21:27;12.02;;;4.28;;
44147;SDS011;29810;55.848;37.368;2022-11-15T13:24:48;8.38;;;4.40;;
44147;SDS011;29810;55.848;37.368;2022-11-15T13:27:50;9.60;;;3.92;;
44147;SDS011;29810;55.848;37.368;2022-11-15T13:30:53;9.98;;;3.95;;
44147;SDS011;29810;55.848;37.368;2022-11-15T13:33:58;9.55;;;4.05;;
44147;SDS011;29810;55.848;37.368;2022-11-15T13:37:03;11.60;;;4.32;;
44147;SDS011;29810;55.848;37.368;2022-11-15T13:40:22;12.05;;;4.75;;
44147;SDS011;29810;55.848;37.368;2022-11-15T13:43:31;10.18;;;4.10;;
44147;SDS011;29810;55.848;37.368;2022-11-15T13:46:35;11.35;;;5.85;;
44147;SDS011;29810;55.848;37.368;2022-11-15T13:49:37;9.13;;;4.60;;
44147;SDS011;29810;55.848;37.368;2022-11-15T13:52:39;11.12;;;4.05;;
44147;SDS011;29810;55.848;37.368;2022-11-15T13:55:44;12.65;;;5.05;;
44147;SDS011;29810;55.848;37.368;2022-11-15T13:58:45;10.52;;;4.53;;
44147;SDS011;29810;55.848;37.368;2022-11-15T14:01:47;10.73;;;4.47;;
44147;SDS011;29810;55.848;37.368;2022-11-15T14:04:53;8.13;;;4.05;;
44147;SDS011;29810;55.848;37.368;2022-11-15T14:07:57;11.60;;;3.97;;
44147;SDS011;29810;55.848;37.368;2022-11-15T14:11:12;10.85;;;3.85;;
44147;SDS011;29810;55.848;37.368;2022-11-15T14:14:22;10.30;;;3.90;;
44147;SDS011;29810;55.848;37.368;2022-11-15T14:20:33;10.40;;;3.70;;
44147;SDS011;29810;55.848;37.368;2022-11-15T14:23:38;9.10;;;3.75;;
44147;SDS011;29810;55.848;37.368;2022-11-15T14:26:41;8.63;;;4.12;;
44147;SDS011;29810;55.848;37.368;2022-11-15T14:29:43;9.43;;;4.35;;
44147;SDS011;29810;55.848;37.368;2022-11-15T14:32:46;9.30;;;3.97;;
44147;SDS011;29810;55.848;37.368;2022-11-15T14:35:50;9.02;;;4.22;;
44147;SDS011;29810;55.848;37.368;2022-11-15T14:38:52;9.30;;;4.50;;
44147;SDS011;29810;55.848;37.368;2022-11-15T14:41:55;11.68;;;4.62;;
44147;SDS011;29810;55.848;37.368;2022-11-15T14:44:56;10.27;;;4.62;;
44147;SDS011;29810;55.848;37.368;2022-11-15T14:47:58;15.02;;;5.03;;
44147;SDS011;29810;55.848;37.368;2022-11-15T14:51:00;8.48;;;4.37;;
44147;SDS011;29810;55.848;37.368;2022-11-15T14:54:01;12.60;;;5.28;;
44147;SDS011;29810;55.848;37.368;2022-11-15T14:57:03;9.98;;;5.35;;
44147;SDS011;29810;55.848;37.368;2022-11-15T15:00:05;14.32;;;5.37;;
44147;SDS011;29810;55.848;37.368;2022-11-15T15:03:13;14.23;;;4.60;;
44147;SDS011;29810;55.848;37.368;2022-11-15T15:06:14;7.60;;;4.50;;
44147;SDS011;29810;55.848;37.368;2022-11-15T15:09:16;11.10;;;4.93;;
44147;SDS011;29810;55.848;37.368;2022-11-15T15:12:19;11.57;;;4.72;;
44147;SDS011;29810;55.848;37.368;2022-11-15T15:15:23;8.05;;;4.47;;
44147;SDS011;29810;55.848;37.368;2022-11-15T15:18:26;11.85;;;4.45;;
44147;SDS011;29810;55.848;37.368;2022-11-15T15:21:28;8.95;;;4.78;;
44147;SDS011;29810;55.848;37.368;2022-11-15T15:24:32;11.35;;;4.82;;
44147;SDS011;29810;55.848;37.368;2022-11-15T15:27:34;12.20;;;5.30;;
44147;SDS011;29810;55.848;37.368;2022-11-15T15:30:35;10.95;;;5.35;;
44147;SDS011;29810;55.848;37.368;2022-11-15T15:33:37;14.52;;;5.85;;
44147;SDS011;29810;55.848;37.368;2022-11-15T15:36:39;11.12;;;6.00;;
44147;SDS011;29810;55.848;37.368;2022-11-15T15:39:40;15.43;;;6.75;;
44147;SDS011;29810;55.848;37.368;2022-11-15T15:42:43;13.10;;;6.90;;
44147;SDS011;29810;55.848;37.368;2022-11-15T15:45:44;13.02;;;7.07;;
44147;SDS011;29810;55.848;37.368;2022-11-15T15:48:46;14.27;;;7.85;;
44147;SDS011;29810;55.848;37.368;2022-11-15T15:51:48;18.45;;;8.57;;
44147;SDS011;29810;55.848;37.368;2022-11-15T15:54:49;16.55;;;8.50;;
44147;SDS011;29810;55.848;37.368;2022-11-15T15:57:51;20.45;;;9.77;;
44147;SDS011;29810;55.848;37.368;2022-11-15T16:00:52;17.58;;;7.82;;
44147;SDS011;29810;55.848;37.368;2022-11-15T16:03:54;18.05;;;7.62;;
44147;SDS011;29810;55.848;37.368;2022-11-15T16:06:59;14.50;;;6.43;;
44147;SDS011;29810;55.848;37.368;2022-11-15T16:10:04;10.07;;;6.07;;
44147;SDS011;29810;55.848;37.368;2022-11-15T16:13:26;10.90;;;5.62;;
44147;SDS011;29810;55.848;37.368;2022-11-15T16:16:27;15.75;;;6.32;;
44147;SDS011;29810;55.848;37.368;2022-11-15T16:19:29;12.65;;;6.03;;
44147;SDS011;29810;55.848;37.368;2022-11-15T16:22:31;13.07;;;6.50;;
44147;SDS011;29810;55.848;37.368;2022-11-15T16:25:37;14.70;;;6.43;;
44147;SDS011;29810;55.848;37.368;2022-11-15T16:28:57;13.43;;;7.78;;
44147;SDS011;29810;55.848;37.368;2022-11-15T16:31:58;18.83;;;8.43;;
44147;SDS011;29810;55.848;37.368;2022-11-15T16:35:00;14.48;;;8.27;;
44147;SDS011;29810;55.848;37.368;2022-11-15T16:38:02;15.80;;;8.00;;
44147;SDS011;29810;55.848;37.368;2022-11-15T16:41:04;14.70;;;8.13;;
44147;SDS011;29810;55.848;37.368;2022-11-15T16:44:05;14.02;;;7.90;;
44147;SDS011;29810;55.848;37.368;2022-11-15T16:47:19;13.35;;;7.47;;
44147;SDS011;29810;55.848;37.368;2022-11-15T16:50:24;11.33;;;7.03;;
44147;SDS011;29810;55.848;37.368;2022-11-15T16:53:28;14.57;;;6.75;;
44147;SDS011;29810;55.848;37.368;2022-11-15T16:56:29;12.80;;;6.82;;
44147;SDS011;29810;55.848;37.368;2022-11-15T16:59:31;13.80;;;6.65;;
44147;SDS011;29810;55.848;37.368;2022-11-15T17:02:33;13.15;;;6.37;;
44147;SDS011;29810;55.848;37.368;2022-11-15T17:05:34;12.90;;;6.45;;
44147;SDS011;29810;55.848;37.368;2022-11-15T17:08:36;13.50;;;6.35;;
44147;SDS011;29810;55.848;37.368;2022-11-15T17:11:37;14.57;;;6.35;;
44147;SDS011;29810;55.848;37.368;2022-11-15T17:14:41;14.25;;;6.68;;
44147;SDS011;29810;55.848;37.368;2022-11-15T17:17:43;10.68;;;6.30;;
44147;SDS011;29810;55.848;37.368;2022-11-15T17:20:46;13.88;;;6.47;;
44147;SDS011;29810;55.848;37.368;2022-11-15T17:23:47;11.88;;;6.35;;
44147;SDS011;29810;55.848;37.368;2022-11-15T17:26:49;11.82;;;6.47;;
44147;SDS011;29810;55.848;37.368;2022-11-15T17:29:50;12.90;;;7.25;;
44147;SDS011;29810;55.848;37.368;2022-11-15T17:32:52;10.27;;;6.28;;
44147;SDS011;29810;55.848;37.368;2022-11-15T17:35:54;9.95;;;6.20;;
44147;SDS011;29810;55.848;37.368;2022-11-15T17:38:59;9.60;;;6.10;;
44147;SDS011;29810;55.848;37.368;2022-11-15T17:42:01;12.77;;;6.87;;
44147;SDS011;29810;55.848;37.368;2022-11-15T17:45:03;12.18;;;7.18;;
44147;SDS011;29810;55.848;37.368;2022-11-15T17:48:05;12.35;;;7.43;;
44147;SDS011;29810;55.848;37.368;2022-11-15T17:51:08;11.10;;;7.75;;
44147;SDS011;29810;55.848;37.368;2022-11-15T17:54:11;13.62;;;7.65;;
44147;SDS011;29810;55.848;37.368;2022-11-15T17:57:14;14.77;;;8.38;;
44147;SDS011;29810;55.848;37.368;2022-11-15T18:00:15;15.82;;;8.88;;
44147;SDS011;29810;55.848;37.368;2022-11-15T18:03:21;13.85;;;8.43;;
44147;SDS011;29810;55.848;37.368;2022-11-15T18:06:22;16.23;;;9.15;;
44147;SDS011;29810;55.848;37.368;2022-11-15T18:09:25;15.02;;;9.05;;
44147;SDS011;29810;55.848;37.368;2022-11-15T18:12:26;14.85;;;9.02;;
44147;SDS011;29810;55.848;37.368;2022-11-15T18:15:28;20.45;;;10.57;;
44147;SDS011;29810;55.848;37.368;2022-11-15T18:18:33;17.58;;;9.93;;
44147;SDS011;29810;55.848;37.368;2022-11-15T18:21:35;19.33;;;10.38;;
44147;SDS011;29810;55.848;37.368;2022-11-15T18:24:55;18.35;;;11.73;;
44147;SDS011;29810;55.848;37.368;2022-11-15T18:27:57;19.80;;;11.80;;
44147;SDS011;29810;55.848;37.368;2022-11-15T18:30:59;20.25;;;10.95;;
44147;SDS011;29810;55.848;37.368;2022-11-15T18:34:02;16.55;;;11.12;;
44147;SDS011;29810;55.848;37.368;2022-11-15T18:37:03;16.10;;;10.65;;
44147;SDS011;29810;55.848;37.368;2022-11-15T18:40:06;15.02;;;9.85;;
44147;SDS011;29810;55.848;37.368;2022-11-15T18:43:07;16.05;;;10.63;;
44147;SDS011;29810;55.848;37.368;2022-11-15T18:46:13;17.33;;;10.75;;
44147;SDS011;29810;55.848;37.368;2022-11-15T18:49:17;16.60;;;10.48;;
44147;SDS011;29810;55.848;37.368;2022-11-15T18:52:21;19.48;;;11.75;;
44147;SDS011;29810;55.848;37.368;2022-11-15T18:55:22;17.48;;;11.50;;
44147;SDS011;29810;55.848;37.368;2022-11-15T18:58:24;16.80;;;12.18;;
44147;SDS011;29810;55.848;37.368;2022-11-15T19:01:29;15.90;;;11.43;;
44147;SDS011;29810;55.848;37.368;2022-11-15T19:04:35;19.85;;;12.48;;
44147;SDS011;29810;55.848;37.368;2022-11-15T19:07:36;19.37;;;12.63;;
44147;SDS011;29810;55.848;37.368;2022-11-15T19:10:38;23.15;;;13.43;;
44147;SDS011;29810;55.848;37.368;2022-11-15T19:13:40;18.65;;;13.32;;
44147;SDS011;29810;55.848;37.368;2022-11-15T19:16:44;23.70;;;14.05;;
44147;SDS011;29810;55.848;37.368;2022-11-15T19:19:55;18.85;;;12.93;;
44147;SDS011;29810;55.848;37.368;2022-11-15T19:22:57;21.52;;;14.38;;
44147;SDS011;29810;55.848;37.368;2022-11-15T19:25:59;25.90;;;15.77;;
44147;SDS011;29810;55.848;37.368;2022-11-15T19:29:02;22.37;;;15.00;;
44147;SDS011;29810;55.848;37.368;2022-11-15T19:32:04;20.23;;;14.55;;
44147;SDS011;29810;55.848;37.368;2022-11-15T19:35:07;20.37;;;13.15;;
44147;SDS011;29810;55.848;37.368;2022-11-15T19:38:09;18.90;;;13.05;;
44147;SDS011;29810;55.848;37.368;2022-11-15T19:41:12;21.60;;;12.65;;
44147;SDS011;29810;55.848;37.368;2022-11-15T19:44:15;22.02;;;13.30;;
44147;SDS011;29810;55.848;37.368;2022-11-15T19:47:17;18.80;;;13.65;;
44147;SDS011;29810;55.848;37.368;2022-11-15T19:50:21;20.55;;;13.52;;
44147;SDS011;29810;55.848;37.368;2022-11-15T19:53:23;21.17;;;13.48;;
44147;SDS011;29810;55.848;37.368;2022-11-15T19:56:24;17.73;;;11.95;;
44147;SDS011;29810;55.848;37.368;2022-11-15T19:59:26;19.98;;;13.55;;
44147;SDS011;29810;55.848;37.368;2022-11-15T20:02:27;21.02;;;14.00;;
44147;SDS011;29810;55.848;37.368;2022-11-15T20:05:29;20.25;;;13.10;;
44147;SDS011;29810;55.848;37.368;2022-11-15T20:08:30;17.90;;;13.20;;
44147;SDS011;29810;55.848;37.368;2022-11-15T20:11:32;21.17;;;13.73;;
44147;SDS011;29810;55.848;37.368;2022-11-15T20:14:37;18.25;;;13.18;;
44147;SDS011;29810;55.848;37.368;2022-11-15T20:17:40;18.00;;;13.05;;
44147;SDS011;29810;55.848;37.368;2022-11-15T20:20:42;24.02;;;11.77;;
44147;SDS011;29810;55.848;37.368;2022-11-15T20:23:44;18.98;;;11.95;;
44147;SDS011;29810;55.848;37.368;2022-11-15T20:26:48;19.55;;;11.70;;